Garland, North Carolina
Current Conditions -  °F | °C
As of 5:55 AM on Sunday 23 Nov 2014 (Local Time) from KCTZ Reporting Station
Light Rain Light Rain  
Wind Chill: 46°   Ceiling: 12000
Heat Index: 46°   Visibility: 10mi
Dew Point: 44°   Wind: 3mph
Humidity: 90%   Direction: 340°NNW
Pressure: 30.27"   Gusts: NA
Location:  34.79°N, 78.39°W
Report Text: KCTZ 231055Z AUTO 34003KT 10SM -RA SCT100 OVC120 08/07 A3027 RMK AO2 T00800065
Loading
Personal Weather Stations






























Interactive Weather Map New forecast layout! Learn more

10-Day Weather Forecast

Advertisements
Track Severe Weather on mobile